Impacts TAF Board INFO
FOR SITUATIONAL AWARENESS. NOT TO BE USED FOR FLIGHT PLANNING PURPOSES.
IDs:

KPDX - Portland Intl Arpt, OR, US

Issued at 1123 UTC 20 Jan 2018
Updated at 1304 UTC 20 Jan 2018
Potential Impact None Slight Moderate High
Time<<21/02Z 21/03Z 21/04Z 21/05Z 21/06Z 21/07Z 21/08Z 21/09Z 21/10Z 21/11Z 21/12Z 21/13Z 21/14Z>>
Type PRVL PRVL PRVL PRVL PRVL PRVL PRVL PRVL PRVL PRVL
VIS >6 >6 >6 >6 >6 >6 >6 >6 >6 >6
CIG 50 50 50 50 50 50 50 50 50 50
Cover OVC OVC OVC OVC OVC OVC OVC OVC OVC OVC
FltCat VFR VFR VFR VFR VFR VFR VFR VFR VFR VFR
WX -RA -RA -RA -RA -RA -RA -- -- -- --
WDir 170 170 170 170 170 170 140 140 140 140
WSpd 11 11 11 11 11 11 17 17 17 17
WGst -- -- -- -- -- -- 26 26 26 26

Raw TAF
KPDX 201123Z 2012/2112 20009KT P6SM -SHRA SCT025 BKN035 OVC050
  TEMPO 2012/2016 OVC025
  FM201600 17011KT P6SM -RA OVC050
  FM210800 14017G26KT P6SM OVC050


METAR Board
Radar Display
Forecast Discussion

FOR SITUATIONAL AWARENESS. NOT TO BE USED FOR FLIGHT PLANNING PURPOSES.